createdAt,value
2022-10-09T00:01:19.481Z,4.95
2022-10-09T00:03:47.937Z,5.00
2022-10-09T00:06:17.220Z,5.40
2022-10-09T00:08:44.331Z,4.57
2022-10-09T00:11:16.517Z,4.78
2022-10-09T00:13:43.423Z,4.55
2022-10-09T00:16:12.807Z,5.30
2022-10-09T00:18:39.858Z,5.00
2022-10-09T00:21:14.191Z,5.78
2022-10-09T00:23:41.031Z,4.20
2022-10-09T00:26:08.545Z,4.88
2022-10-09T00:28:38.484Z,5.15
2022-10-09T00:31:09.585Z,5.00
2022-10-09T00:33:37.187Z,4.75
2022-10-09T00:36:10.384Z,4.80
2022-10-09T00:41:03.609Z,4.95
2022-10-09T00:43:52.287Z,5.00
2022-10-09T00:46:25.664Z,4.57
2022-10-09T00:49:02.991Z,4.80
2022-10-09T00:51:30.381Z,4.85
2022-10-09T00:53:57.219Z,4.63
2022-10-09T00:56:24.961Z,4.53
2022-10-09T00:58:53.919Z,4.57
2022-10-09T01:01:21.091Z,5.30
2022-10-09T01:03:47.822Z,4.55
2022-10-09T01:06:23.013Z,5.25
2022-10-09T01:09:08.713Z,5.60
2022-10-09T01:11:57.317Z,4.80
2022-10-09T01:14:29.662Z,4.82
2022-10-09T01:17:08.371Z,4.40
2022-10-09T01:19:44.981Z,4.50
2022-10-09T01:22:29.908Z,5.03
2022-10-09T01:25:11.670Z,5.65
2022-10-09T01:27:38.809Z,5.57
2022-10-09T01:30:08.568Z,4.82
2022-10-09T01:32:38.230Z,4.18
2022-10-09T01:35:06.382Z,4.70
2022-10-09T01:37:34.231Z,4.82
2022-10-09T01:40:01.143Z,4.25
2022-10-09T01:42:29.030Z,4.05
2022-10-09T01:44:55.721Z,4.18
2022-10-09T01:47:22.826Z,5.30
2022-10-09T01:50:01.899Z,4.50
2022-10-09T01:52:31.977Z,4.75
2022-10-09T01:55:01.440Z,5.05
2022-10-09T01:57:46.674Z,4.70
2022-10-09T02:00:14.149Z,5.22
2022-10-09T02:02:42.251Z,4.55
2022-10-09T02:05:15.693Z,4.70
2022-10-09T02:07:42.425Z,4.57
2022-10-09T02:10:09.975Z,4.90
2022-10-09T02:12:44.380Z,4.45
2022-10-09T02:15:11.549Z,5.53
2022-10-09T02:17:44.219Z,4.43
2022-10-09T02:22:42.435Z,4.43
2022-10-09T02:25:09.595Z,4.95
2022-10-09T02:27:36.341Z,4.70
2022-10-09T02:30:04.779Z,4.80
2022-10-09T02:32:31.396Z,5.95
2022-10-09T02:34:58.036Z,4.40
2022-10-09T02:37:24.678Z,5.03
2022-10-09T02:39:51.426Z,4.82
2022-10-09T02:42:18.238Z,5.47
2022-10-09T02:44:44.944Z,5.25
2022-10-09T02:47:11.649Z,5.30
2022-10-09T02:49:38.296Z,4.75
2022-10-09T02:52:05.624Z,5.82
2022-10-09T02:54:32.354Z,4.93
2022-10-09T02:56:59.021Z,4.93
2022-10-09T02:59:26.261Z,4.72
2022-10-09T03:01:53.018Z,4.63
2022-10-09T03:04:19.790Z,4.68
2022-10-09T03:06:46.450Z,4.68
2022-10-09T03:09:13.076Z,4.72
2022-10-09T03:11:39.763Z,5.60
2022-10-09T03:14:06.496Z,5.32
2022-10-09T03:16:33.192Z,5.65
2022-10-09T03:19:00.215Z,4.47
2022-10-09T03:21:28.297Z,4.63
2022-10-09T03:23:55.532Z,4.80
2022-10-09T03:26:24.779Z,4.78
2022-10-09T03:28:52.647Z,4.75
2022-10-09T03:31:50.567Z,5.00
2022-10-09T03:34:07.772Z,4.82
2022-10-09T03:36:34.515Z,5.18
2022-10-09T03:39:01.161Z,4.80
2022-10-09T03:41:27.844Z,4.70
2022-10-09T03:43:54.823Z,4.78
2022-10-09T03:46:22.000Z,4.95
2022-10-09T03:48:48.733Z,4.57
2022-10-09T03:51:15.400Z,5.20
2022-10-09T03:53:42.034Z,5.25
2022-10-09T03:56:08.775Z,5.55
2022-10-09T03:58:35.376Z,5.07
2022-10-09T04:01:02.037Z,4.75
2022-10-09T04:03:29.044Z,4.80
2022-10-09T04:05:55.686Z,4.90
2022-10-09T04:08:22.497Z,5.50
2022-10-09T04:10:49.253Z,4.43
2022-10-09T04:13:15.952Z,5.00
2022-10-09T04:15:50.129Z,5.20
2022-10-09T04:18:16.979Z,5.18
2022-10-09T04:20:54.045Z,5.43
2022-10-09T04:23:21.706Z,5.72
2022-10-09T04:25:48.860Z,5.13
2022-10-09T04:28:15.528Z,5.18
2022-10-09T04:30:42.205Z,4.90
2022-10-09T04:33:12.771Z,4.57
2022-10-09T04:35:46.779Z,5.28
2022-10-09T04:38:13.347Z,5.55
2022-10-09T04:40:40.028Z,5.22
2022-10-09T04:43:06.871Z,5.40
2022-10-09T04:45:33.809Z,5.32
2022-10-09T04:48:00.534Z,4.93
2022-10-09T04:50:27.225Z,5.13
2022-10-09T04:52:59.642Z,5.45
2022-10-09T04:55:26.388Z,5.00
2022-10-09T04:57:53.021Z,5.28
2022-10-09T05:00:19.764Z,5.55
2022-10-09T05:02:46.818Z,4.75
2022-10-09T05:05:13.995Z,4.40
2022-10-09T05:07:41.031Z,5.30
2022-10-09T05:10:08.558Z,5.63
2022-10-09T05:12:35.408Z,4.28
2022-10-09T05:15:02.133Z,5.18
2022-10-09T05:17:28.916Z,4.82
2022-10-09T05:19:55.605Z,5.88
2022-10-09T05:22:22.563Z,5.38
2022-10-09T05:24:49.327Z,5.40
2022-10-09T05:27:16.005Z,5.38
2022-10-09T05:29:43.288Z,5.35
2022-10-09T05:32:10.062Z,6.30
2022-10-09T05:34:36.739Z,7.30
2022-10-09T05:37:03.485Z,7.93
2022-10-09T05:39:30.208Z,6.75
2022-10-09T05:41:56.904Z,7.38
2022-10-09T05:44:24.163Z,6.65
2022-10-09T05:46:50.827Z,6.32
2022-10-09T05:49:17.567Z,6.45
2022-10-09T05:51:44.291Z,6.10
2022-10-09T05:54:15.678Z,5.10
2022-10-09T05:56:43.638Z,4.82
2022-10-09T05:59:14.881Z,5.45
2022-10-09T06:01:43.761Z,5.20
2022-10-09T06:04:16.176Z,6.63
2022-10-09T06:06:43.718Z,6.75
2022-10-09T06:09:12.331Z,7.03
2022-10-09T06:11:40.552Z,7.47
2022-10-09T06:14:09.659Z,6.88
2022-10-09T06:16:38.456Z,6.38
2022-10-09T06:19:07.599Z,6.70
2022-10-09T06:21:40.625Z,7.55
2022-10-09T06:24:07.428Z,6.97
2022-10-09T06:26:34.775Z,6.93
2022-10-09T06:29:02.361Z,6.75
2022-10-09T06:31:31.494Z,7.10
2022-10-09T06:34:03.250Z,6.57
2022-10-09T06:36:32.160Z,6.20
2022-10-09T06:38:59.987Z,6.97
2022-10-09T06:41:28.289Z,7.57
2022-10-09T06:44:16.559Z,7.32
2022-10-09T06:46:44.880Z,8.52
2022-10-09T06:49:17.673Z,7.28
2022-10-09T06:54:16.756Z,5.82
2022-10-09T06:56:47.260Z,5.90
2022-10-09T06:59:14.323Z,5.97
2022-10-09T07:01:41.033Z,5.40
2022-10-09T07:04:12.819Z,5.10
2022-10-09T07:06:44.787Z,4.80
2022-10-09T07:09:13.457Z,4.95
2022-10-09T07:11:43.361Z,4.45
2022-10-09T07:14:11.548Z,5.00
2022-10-09T07:16:41.477Z,5.53
2022-10-09T07:19:11.192Z,5.43
2022-10-09T07:21:40.048Z,5.38
2022-10-09T07:24:07.477Z,5.15
2022-10-09T07:26:35.982Z,4.97
2022-10-09T07:29:02.736Z,6.25
2022-10-09T07:31:29.386Z,5.50
2022-10-09T07:33:57.159Z,5.30
2022-10-09T07:36:23.989Z,5.55
2022-10-09T07:38:54.570Z,4.63
2022-10-09T07:41:22.498Z,5.05
2022-10-09T07:43:49.539Z,5.45
2022-10-09T07:46:18.768Z,4.30
2022-10-09T07:48:46.228Z,5.18
2022-10-09T07:51:17.402Z,4.80
2022-10-09T07:53:44.933Z,4.43
2022-10-09T07:56:15.948Z,4.90
2022-10-09T07:58:43.325Z,5.63
2022-10-09T08:01:10.525Z,4.97
2022-10-09T08:03:37.355Z,4.55
2022-10-09T08:06:04.704Z,5.00
2022-10-09T08:08:31.316Z,5.40
2022-10-09T08:10:57.965Z,4.80
2022-10-09T08:13:24.711Z,5.15
2022-10-09T08:15:51.625Z,4.57
2022-10-09T08:18:18.265Z,4.47
2022-10-09T08:20:45.224Z,4.28
2022-10-09T08:23:11.872Z,5.00
2022-10-09T08:25:39.159Z,5.20
2022-10-09T08:28:05.817Z,4.82
2022-10-09T08:30:32.620Z,4.25
2022-10-09T08:32:59.253Z,4.60
2022-10-09T08:35:26.832Z,4.22
2022-10-09T08:37:53.560Z,4.55
2022-10-09T08:40:29.614Z,4.43
2022-10-09T08:43:07.228Z,3.78
2022-10-09T08:45:35.198Z,4.40
2022-10-09T08:48:06.556Z,4.30
2022-10-09T08:50:36.162Z,3.83
2022-10-09T08:53:14.033Z,3.50
2022-10-09T08:55:58.714Z,3.88
2022-10-09T08:58:29.758Z,3.60
2022-10-09T09:01:01.996Z,3.78
2022-10-09T09:03:57.023Z,3.88
2022-10-09T09:06:57.057Z,2.80
2022-10-09T09:09:35.711Z,3.88
2022-10-09T09:12:16.186Z,3.60
2022-10-09T09:15:05.563Z,3.50
2022-10-09T09:18:01.315Z,3.08
2022-10-09T09:20:37.154Z,2.55
2022-10-09T09:23:09.369Z,2.45
2022-10-09T09:25:37.968Z,2.80
2022-10-09T09:28:18.245Z,2.80
2022-10-09T09:30:49.233Z,2.53
2022-10-09T09:33:23.201Z,2.80
2022-10-09T09:35:55.899Z,2.67
2022-10-09T09:38:23.083Z,2.72
2022-10-09T09:40:51.210Z,2.40
2022-10-09T09:43:21.314Z,2.28
2022-10-09T09:45:49.228Z,2.40
2022-10-09T09:48:37.674Z,2.10
2022-10-09T09:51:26.703Z,2.38
2022-10-09T09:54:17.029Z,2.22
2022-10-09T09:59:40.138Z,2.22
2022-10-09T10:02:06.807Z,1.83
2022-10-09T10:04:33.512Z,2.47
2022-10-09T10:07:00.239Z,1.42
2022-10-09T10:09:27.243Z,2.15
2022-10-09T10:11:59.453Z,1.65
2022-10-09T10:14:27.093Z,1.73
2022-10-09T10:16:55.909Z,2.25
2022-10-09T10:19:25.232Z,1.88
2022-10-09T10:22:03.464Z,1.38
2022-10-09T10:24:45.061Z,1.90
2022-10-09T10:27:21.890Z,1.92
2022-10-09T10:29:49.788Z,1.88
2022-10-09T10:32:39.209Z,1.60
2022-10-09T10:35:11.009Z,1.80
2022-10-09T10:37:49.886Z,1.77
2022-10-09T10:40:31.795Z,1.85
2022-10-09T10:43:10.658Z,1.98
2022-10-09T10:45:43.160Z,1.30
2022-10-09T10:50:53.738Z,1.27
2022-10-09T10:53:23.815Z,1.65
2022-10-09T10:55:55.846Z,1.25
2022-10-09T10:58:40.871Z,1.20
2022-10-09T11:01:32.680Z,1.33
2022-10-09T11:04:23.686Z,1.48
2022-10-09T11:07:14.659Z,1.75
2022-10-09T11:09:58.656Z,1.40
2022-10-09T11:12:48.126Z,2.05
2022-10-09T11:15:38.618Z,1.85
2022-10-09T11:18:21.856Z,1.40
2022-10-09T11:20:54.486Z,1.77
2022-10-09T11:23:39.657Z,1.27
2022-10-09T11:26:31.119Z,1.10
2022-10-09T11:29:18.065Z,1.38
2022-10-09T11:31:55.555Z,1.40
2022-10-09T11:34:30.628Z,1.13
2022-10-09T11:36:59.029Z,1.42
2022-10-09T11:39:27.314Z,1.38
2022-10-09T11:41:55.009Z,1.58
2022-10-09T11:44:52.029Z,1.40
2022-10-09T11:47:25.231Z,1.40
2022-10-09T11:50:31.064Z,1.30
2022-10-09T11:52:58.864Z,1.38
2022-10-09T11:55:27.975Z,1.60
2022-10-09T11:57:55.119Z,1.02
2022-10-09T12:00:34.263Z,1.10
2022-10-09T12:03:03.720Z,1.27
2022-10-09T12:05:45.548Z,1.10
2022-10-09T12:08:32.448Z,1.20
2022-10-09T12:11:15.288Z,1.60
2022-10-09T12:13:45.078Z,1.25
2022-10-09T12:16:49.913Z,1.40
2022-10-09T12:19:19.641Z,1.10
2022-10-09T12:22:08.165Z,0.90
2022-10-09T12:24:40.730Z,1.30
2022-10-09T12:29:40.927Z,1.55
2022-10-09T12:32:18.785Z,1.77
2022-10-09T12:34:50.474Z,1.33
2022-10-09T12:37:22.484Z,1.67
2022-10-09T12:39:49.813Z,1.17
2022-10-09T12:42:22.064Z,1.15
2022-10-09T12:44:50.285Z,1.40
2022-10-09T12:47:28.356Z,1.20
2022-10-09T12:50:16.105Z,1.23
2022-10-09T12:52:56.756Z,1.63
2022-10-09T12:55:42.657Z,1.42
2022-10-09T12:58:16.909Z,1.35
2022-10-09T13:00:43.924Z,1.45
2022-10-09T13:03:23.566Z,1.17
2022-10-09T13:05:50.604Z,1.10
2022-10-09T13:08:24.601Z,0.95
2022-10-09T13:10:51.971Z,1.40
2022-10-09T13:13:26.233Z,1.50
2022-10-09T13:16:01.450Z,1.50
2022-10-09T13:18:28.212Z,1.20
2022-10-09T13:21:04.859Z,1.50
2022-10-09T13:23:33.691Z,1.52
2022-10-09T13:26:03.568Z,1.60
2022-10-09T13:28:30.718Z,1.65
2022-10-09T13:31:06.324Z,1.30
2022-10-09T13:33:32.971Z,1.30
2022-10-09T13:35:59.595Z,1.63
2022-10-09T13:38:26.278Z,1.25
2022-10-09T13:40:52.999Z,1.38
2022-10-09T13:43:26.125Z,1.92
2022-10-09T13:45:53.715Z,1.30
2022-10-09T13:48:20.332Z,1.27
2022-10-09T13:50:47.024Z,1.30
2022-10-09T13:53:13.953Z,1.38
2022-10-09T13:55:40.667Z,1.55
2022-10-09T13:58:07.361Z,1.33
2022-10-09T14:00:34.262Z,1.80
2022-10-09T14:03:00.906Z,1.27
2022-10-09T14:05:27.620Z,1.27
2022-10-09T14:07:54.744Z,1.52
2022-10-09T14:10:23.893Z,1.27
2022-10-09T14:12:51.788Z,1.20
2022-10-09T14:15:18.826Z,1.17
2022-10-09T14:17:45.581Z,1.25
2022-10-09T14:20:12.651Z,1.45
2022-10-09T14:22:39.313Z,1.35
2022-10-09T14:25:06.399Z,1.20
2022-10-09T14:30:19.589Z,1.23
2022-10-09T14:32:46.427Z,1.63
2022-10-09T14:35:16.966Z,1.80
2022-10-09T14:37:45.915Z,1.67
2022-10-09T14:40:12.786Z,1.65
2022-10-09T14:42:39.979Z,1.60
2022-10-09T14:45:07.696Z,1.27
2022-10-09T14:47:34.346Z,1.25
2022-10-09T14:50:01.200Z,1.35
2022-10-09T14:52:27.932Z,1.40
2022-10-09T14:54:54.575Z,1.80
2022-10-09T14:57:22.014Z,1.70
2022-10-09T14:59:48.706Z,1.50
2022-10-09T15:02:16.367Z,1.38
2022-10-09T15:04:43.065Z,1.67
2022-10-09T15:07:09.795Z,1.50
2022-10-09T15:09:36.436Z,1.50
2022-10-09T15:12:03.121Z,1.60
2022-10-09T15:14:29.732Z,1.63
2022-10-09T15:16:56.324Z,1.75
2022-10-09T15:19:23.024Z,2.25
2022-10-09T15:21:49.656Z,2.30
2022-10-09T15:24:16.266Z,3.75
2022-10-09T15:26:42.875Z,1.70
2022-10-09T15:29:09.567Z,1.55
2022-10-09T15:31:38.745Z,2.13
2022-10-09T15:34:06.439Z,1.80
2022-10-09T15:36:38.095Z,1.63
2022-10-09T15:39:07.287Z,1.73
2022-10-09T15:41:36.905Z,1.63
2022-10-09T15:44:06.190Z,1.50
2022-10-09T15:46:32.953Z,1.27
2022-10-09T15:48:59.747Z,2.05
2022-10-09T15:51:26.685Z,1.63
2022-10-09T15:53:53.369Z,1.52
2022-10-09T15:56:22.860Z,1.55
2022-10-09T15:58:50.709Z,1.58
2022-10-09T16:01:18.053Z,1.92
2022-10-09T16:03:45.130Z,1.52
2022-10-09T16:06:15.496Z,2.28
2022-10-09T16:08:42.387Z,2.50
2022-10-09T16:11:11.768Z,2.05
2022-10-09T16:13:40.748Z,2.50
2022-10-09T16:16:09.643Z,2.35
2022-10-09T16:18:36.505Z,2.33
2022-10-09T16:21:07.650Z,2.63
2022-10-09T16:23:34.833Z,2.78
2022-10-09T16:26:04.948Z,2.40
2022-10-09T16:28:32.720Z,2.42
2022-10-09T16:31:02.520Z,2.88
2022-10-09T16:33:29.180Z,2.45
2022-10-09T16:36:06.738Z,2.90
2022-10-09T16:38:33.458Z,3.05
2022-10-09T16:41:02.469Z,3.40
2022-10-09T16:43:29.443Z,2.72
2022-10-09T16:45:56.061Z,2.80
2022-10-09T16:48:22.798Z,2.72
2022-10-09T16:50:49.751Z,3.08
2022-10-09T16:53:16.568Z,2.58
2022-10-09T16:55:43.244Z,2.47
2022-10-09T16:58:09.889Z,3.22
2022-10-09T17:00:36.656Z,3.60
2022-10-09T17:03:03.929Z,2.90
2022-10-09T17:05:30.609Z,3.33
2022-10-09T17:07:57.381Z,3.15
2022-10-09T17:10:26.898Z,2.90
2022-10-09T17:12:53.513Z,2.67
2022-10-09T17:15:20.157Z,3.20
2022-10-09T17:17:47.184Z,3.03
2022-10-09T17:20:13.986Z,2.97
2022-10-09T17:22:40.606Z,3.38
2022-10-09T17:25:07.570Z,3.47
2022-10-09T17:27:34.174Z,2.85
2022-10-09T17:30:00.803Z,3.28
2022-10-09T17:32:27.469Z,2.67
2022-10-09T17:34:54.129Z,3.10
2022-10-09T17:37:20.841Z,3.75
2022-10-09T17:39:51.875Z,3.22
2022-10-09T17:42:18.938Z,3.25
2022-10-09T17:44:45.583Z,3.53
2022-10-09T17:47:12.259Z,3.00
2022-10-09T17:49:38.842Z,3.00
2022-10-09T17:52:05.511Z,4.28
2022-10-09T17:54:32.186Z,3.90
2022-10-09T17:57:00.356Z,4.80
2022-10-09T17:59:27.386Z,6.38
2022-10-09T18:01:53.945Z,6.65
2022-10-09T18:04:20.632Z,6.63
2022-10-09T18:06:47.255Z,6.90
2022-10-09T18:09:13.995Z,5.47
2022-10-09T18:11:40.719Z,4.30
2022-10-09T18:14:07.585Z,4.30
2022-10-09T18:16:37.847Z,3.58
2022-10-09T18:19:12.285Z,3.90
2022-10-09T18:21:43.687Z,4.20
2022-10-09T18:24:10.827Z,3.45
2022-10-09T18:26:37.551Z,3.80
2022-10-09T18:29:05.467Z,3.63
2022-10-09T18:31:32.327Z,3.75
2022-10-09T18:33:59.566Z,3.55
2022-10-09T18:36:31.369Z,3.78
2022-10-09T18:39:04.494Z,4.57
2022-10-09T18:41:31.310Z,3.88
2022-10-09T18:44:00.084Z,4.18
2022-10-09T18:46:27.621Z,4.22
2022-10-09T18:48:54.912Z,4.50
2022-10-09T18:51:23.856Z,4.05
2022-10-09T18:53:53.095Z,4.85
2022-10-09T18:56:21.107Z,3.83
2022-10-09T18:58:49.627Z,3.80
2022-10-09T19:01:16.311Z,3.90
2022-10-09T19:03:46.049Z,4.72
2022-10-09T19:06:15.916Z,4.15
2022-10-09T19:08:43.688Z,4.50
2022-10-09T19:11:10.443Z,3.78
2022-10-09T19:13:37.132Z,4.22
2022-10-09T19:16:05.705Z,4.18
2022-10-09T19:18:34.620Z,4.50
2022-10-09T19:21:01.863Z,4.88
2022-10-09T19:23:28.687Z,4.32
2022-10-09T19:25:57.111Z,4.57
2022-10-09T19:28:25.778Z,4.65
2022-10-09T19:30:52.762Z,3.90
2022-10-09T19:33:19.543Z,3.92
2022-10-09T19:35:50.440Z,4.75
2022-10-09T19:38:17.778Z,4.00
2022-10-09T19:40:45.296Z,4.55
2022-10-09T19:43:12.972Z,4.38
2022-10-09T19:45:39.724Z,4.60
2022-10-09T19:48:06.855Z,4.22
2022-10-09T19:50:33.685Z,4.60
2022-10-09T19:53:03.299Z,3.55
2022-10-09T19:55:33.342Z,4.53
2022-10-09T19:58:00.627Z,4.38
2022-10-09T20:00:28.340Z,4.53
2022-10-09T20:02:55.055Z,4.78
2022-10-09T20:05:23.041Z,4.90
2022-10-09T20:07:50.220Z,4.82
2022-10-09T20:10:17.070Z,5.07
2022-10-09T20:12:43.764Z,5.60
2022-10-09T20:15:10.668Z,5.05
2022-10-09T20:17:37.400Z,4.55
2022-10-09T20:20:05.311Z,5.10
2022-10-09T20:22:32.143Z,5.45
2022-10-09T20:24:58.882Z,5.13
2022-10-09T20:27:25.574Z,5.10
2022-10-09T20:29:53.053Z,5.63
2022-10-09T20:32:19.807Z,5.70
2022-10-09T20:34:46.479Z,5.65
2022-10-09T20:37:13.167Z,5.75
2022-10-09T20:39:39.840Z,6.25
2022-10-09T20:42:06.628Z,4.65
2022-10-09T20:44:33.367Z,4.55
2022-10-09T20:47:00.017Z,5.22
2022-10-09T20:49:26.943Z,5.55
2022-10-09T20:51:53.772Z,4.97
2022-10-09T20:54:21.826Z,5.63
2022-10-09T20:56:48.824Z,5.45
2022-10-09T20:59:16.484Z,5.50
2022-10-09T21:01:43.101Z,5.45
2022-10-09T21:04:11.228Z,5.90
2022-10-09T21:06:38.259Z,5.85
2022-10-09T21:09:05.174Z,5.85
2022-10-09T21:11:34.511Z,5.38
2022-10-09T21:14:02.279Z,5.65
2022-10-09T21:16:29.077Z,5.70
2022-10-09T21:18:58.150Z,5.53
2022-10-09T21:21:25.525Z,5.60
2022-10-09T21:23:53.627Z,5.35
2022-10-09T21:26:21.391Z,5.85
2022-10-09T21:28:48.403Z,4.70
2022-10-09T21:31:20.360Z,5.18
2022-10-09T21:33:47.617Z,5.80
2022-10-09T21:36:56.251Z,5.10
2022-10-09T21:39:28.903Z,5.70
2022-10-09T21:41:55.545Z,5.22
2022-10-09T21:44:22.240Z,5.30
2022-10-09T21:46:48.921Z,5.53
2022-10-09T21:49:21.403Z,6.10
2022-10-09T21:51:48.172Z,5.20
2022-10-09T21:54:15.472Z,5.32
2022-10-09T21:56:42.153Z,4.90
2022-10-09T21:59:09.037Z,4.82
2022-10-09T22:01:35.994Z,4.53
2022-10-09T22:04:02.747Z,4.80
2022-10-09T22:06:29.411Z,5.18
2022-10-09T22:08:56.082Z,4.93
2022-10-09T22:11:22.744Z,4.72
2022-10-09T22:13:49.995Z,5.03
2022-10-09T22:16:16.713Z,4.85
2022-10-09T22:18:43.534Z,4.90
2022-10-09T22:21:13.066Z,5.07
2022-10-09T22:23:39.810Z,4.22
2022-10-09T22:26:10.153Z,4.65
2022-10-09T22:28:36.912Z,4.32
2022-10-09T22:31:07.803Z,4.43
2022-10-09T22:33:35.843Z,4.60
2022-10-09T22:36:13.759Z,4.57
2022-10-09T22:38:41.160Z,4.60
2022-10-09T22:41:09.098Z,4.95
2022-10-09T22:43:36.293Z,4.70
2022-10-09T22:46:11.014Z,4.78
2022-10-09T22:48:38.199Z,5.47
2022-10-09T22:51:06.443Z,4.70
2022-10-09T22:53:33.984Z,4.85
2022-10-09T22:56:00.785Z,4.97
2022-10-09T22:58:27.490Z,4.90
2022-10-09T23:00:54.129Z,4.45
2022-10-09T23:03:20.908Z,4.85
2022-10-09T23:05:47.576Z,4.43
2022-10-09T23:08:14.256Z,4.95
2022-10-09T23:10:41.087Z,4.30
2022-10-09T23:13:07.890Z,5.13
2022-10-09T23:15:36.210Z,4.75
2022-10-09T23:18:04.556Z,4.53
2022-10-09T23:20:32.091Z,5.05
2022-10-09T23:22:58.815Z,5.20
2022-10-09T23:25:25.575Z,4.72
2022-10-09T23:27:52.237Z,5.40
2022-10-09T23:30:18.852Z,5.05
2022-10-09T23:32:45.546Z,5.25
2022-10-09T23:35:12.258Z,4.90
2022-10-09T23:37:39.072Z,4.88
2022-10-09T23:40:06.119Z,4.70
2022-10-09T23:42:32.827Z,4.93
2022-10-09T23:44:59.516Z,5.05
2022-10-09T23:47:26.174Z,4.80
2022-10-09T23:49:52.904Z,5.55
2022-10-09T23:52:19.649Z,5.50
2022-10-09T23:54:46.344Z,5.03
2022-10-09T23:57:13.019Z,5.47
2022-10-09T23:59:39.626Z,5.30
